createdAt,value
2019-04-04T00:02:09.407Z,49.78
2019-04-04T00:04:39.342Z,49.79
2019-04-04T00:07:09.919Z,49.93
2019-04-04T00:09:40.121Z,50.10
2019-04-04T00:12:10.106Z,50.10
2019-04-04T00:14:40.182Z,50.25
2019-04-04T00:17:10.100Z,50.36
2019-04-04T00:19:40.340Z,50.35
2019-04-04T00:22:10.716Z,50.33
2019-04-04T00:24:41.017Z,50.45
2019-04-04T00:27:13.362Z,50.46
2019-04-04T00:29:42.659Z,50.43
2019-04-04T00:32:12.905Z,50.45
2019-04-04T00:34:42.594Z,50.42
2019-04-04T00:37:12.555Z,50.38
2019-04-04T00:39:42.767Z,50.42
2019-04-04T00:42:12.657Z,50.54
2019-04-04T00:44:42.733Z,50.50
2019-04-04T00:47:12.712Z,50.51
2019-04-04T00:49:42.797Z,50.48
2019-04-04T00:52:12.658Z,50.53
2019-04-04T00:54:42.989Z,50.81
2019-04-04T00:57:14.286Z,51.10
2019-04-04T00:59:43.966Z,51.09
2019-04-04T01:02:13.623Z,51.00
2019-04-04T01:04:43.715Z,51.09
2019-04-04T01:07:13.876Z,51.38
2019-04-04T01:09:43.801Z,51.54
2019-04-04T01:12:13.733Z,51.38
2019-04-04T01:14:43.846Z,51.39
2019-04-04T01:17:13.735Z,51.50
2019-04-04T01:19:43.794Z,51.62
2019-04-04T01:22:13.893Z,51.81
2019-04-04T01:24:44.128Z,51.48
2019-04-04T01:27:13.906Z,51.48
2019-04-04T01:29:43.839Z,51.73
2019-04-04T01:32:15.133Z,51.70
2019-04-04T01:34:45.455Z,51.73
2019-04-04T01:37:15.540Z,51.71
2019-04-04T01:39:45.456Z,51.84
2019-04-04T01:42:15.511Z,51.97
2019-04-04T01:44:46.245Z,51.85
2019-04-04T01:47:17.051Z,52.09
2019-04-04T01:49:47.847Z,52.18
2019-04-04T01:52:17.710Z,52.11
2019-04-04T01:54:47.636Z,52.08
2019-04-04T01:57:17.571Z,52.42
2019-04-04T01:59:47.459Z,52.60
2019-04-04T02:02:18.418Z,52.40
2019-04-04T02:04:48.383Z,52.20
2019-04-04T02:07:18.090Z,52.09
2019-04-04T02:09:48.587Z,52.16
2019-04-04T02:12:18.574Z,52.16
2019-04-04T02:14:48.423Z,52.27
2019-04-04T02:17:18.240Z,52.26
2019-04-04T02:19:48.164Z,52.28
2019-04-04T02:22:18.089Z,52.23
2019-04-04T02:24:48.145Z,52.32
2019-04-04T02:27:17.970Z,52.59
2019-04-04T02:29:47.809Z,52.88
2019-04-04T02:32:18.751Z,52.96
2019-04-04T02:34:48.580Z,53.20
2019-04-04T02:37:20.512Z,53.43
2019-04-04T02:39:50.567Z,53.67
2019-04-04T02:42:22.194Z,53.58
2019-04-04T02:44:52.104Z,53.63
2019-04-04T02:47:21.975Z,53.46
2019-04-04T02:49:51.774Z,53.68
2019-04-04T02:52:21.920Z,53.61
2019-04-04T02:54:52.049Z,53.76
2019-04-04T02:57:21.789Z,53.56
2019-04-04T02:59:53.500Z,53.41
2019-04-04T03:02:23.840Z,53.68
2019-04-04T03:04:54.863Z,53.54
2019-04-04T03:07:24.848Z,53.28
2019-04-04T03:09:54.747Z,53.14
2019-04-04T03:12:26.238Z,53.14
2019-04-04T03:14:56.120Z,53.18
2019-04-04T03:17:25.941Z,52.73
2019-04-04T03:19:55.708Z,52.73
2019-04-04T03:22:27.434Z,53.02
2019-04-04T03:24:57.242Z,52.93
2019-04-04T03:27:27.386Z,52.97
2019-04-04T03:29:57.420Z,52.85
2019-04-04T03:32:27.993Z,52.67
2019-04-04T03:34:57.896Z,52.67
2019-04-04T03:37:27.604Z,52.40
2019-04-04T03:39:58.000Z,52.82
2019-04-04T03:42:27.857Z,52.82
2019-04-04T03:44:57.750Z,52.66
2019-04-04T03:47:27.716Z,52.95
2019-04-04T03:49:58.037Z,52.82
2019-04-04T03:52:27.701Z,52.77
2019-04-04T03:54:57.826Z,53.03
2019-04-04T03:57:27.569Z,52.88
2019-04-04T03:59:57.592Z,52.96
2019-04-04T04:02:27.770Z,52.96
2019-04-04T04:05:00.493Z,52.73
2019-04-04T04:07:29.173Z,52.58
2019-04-04T04:09:59.654Z,52.58
2019-04-04T04:12:30.535Z,52.78
2019-04-04T04:15:00.206Z,52.59
2019-04-04T04:17:30.051Z,52.45
2019-04-04T04:20:03.288Z,52.48
2019-04-04T04:22:31.674Z,52.37
2019-04-04T04:25:03.286Z,52.10
2019-04-04T04:27:33.707Z,52.02
2019-04-04T04:30:07.166Z,51.93
2019-04-04T04:32:37.374Z,51.71
2019-04-04T04:35:09.011Z,51.66
2019-04-04T04:37:39.153Z,51.49
2019-04-04T04:40:13.797Z,51.46
2019-04-04T04:42:41.317Z,51.42
2019-04-04T04:45:12.466Z,51.25
2019-04-04T04:47:42.595Z,51.35
2019-04-04T04:50:12.759Z,51.28
2019-04-04T04:52:46.329Z,51.34
2019-04-04T04:55:14.265Z,51.19
2019-04-04T04:57:44.035Z,51.30
2019-04-04T05:00:16.174Z,51.30
2019-04-04T05:02:46.239Z,51.42
2019-04-04T05:05:16.571Z,51.47
2019-04-04T05:07:46.420Z,51.47
2019-04-04T05:10:16.601Z,51.59
2019-04-04T05:12:46.753Z,51.59
2019-04-04T05:15:16.654Z,51.03
2019-04-04T05:17:46.740Z,51.03
2019-04-04T05:20:16.326Z,51.33
2019-04-04T05:22:46.545Z,51.19
2019-04-04T05:25:16.464Z,51.13
2019-04-04T05:27:46.310Z,50.97
2019-04-04T05:30:16.798Z,50.72
2019-04-04T05:32:50.029Z,50.62
2019-04-04T05:35:19.912Z,50.31
2019-04-04T05:37:51.087Z,50.26
2019-04-04T05:40:23.614Z,50.35
2019-04-04T05:42:53.167Z,49.90
2019-04-04T05:45:23.173Z,49.73
2019-04-04T05:47:54.953Z,49.58
2019-04-04T05:50:25.881Z,49.24
2019-04-04T05:52:55.839Z,49.02
2019-04-04T05:55:26.127Z,49.02
2019-04-04T05:57:56.016Z,49.02
2019-04-04T06:00:27.454Z,48.85
2019-04-04T06:02:57.576Z,48.55
2019-04-04T06:05:27.919Z,48.61
2019-04-04T06:07:57.727Z,48.20
2019-04-04T06:10:27.833Z,48.15
2019-04-04T06:12:57.611Z,48.13
2019-04-04T06:15:27.525Z,47.64
2019-04-04T06:17:57.395Z,47.58
2019-04-04T06:20:27.206Z,47.36
2019-04-04T06:22:57.224Z,46.79
2019-04-04T06:25:27.525Z,46.68
2019-04-04T06:27:57.593Z,46.29
2019-04-04T06:30:27.672Z,46.63
2019-04-04T06:32:58.069Z,46.58
2019-04-04T06:35:28.208Z,46.04
2019-04-04T06:37:57.979Z,45.77
2019-04-04T06:40:28.119Z,45.83
2019-04-04T06:42:59.451Z,45.71
2019-04-04T06:45:29.757Z,45.47
2019-04-04T06:47:59.509Z,45.16
2019-04-04T06:50:29.100Z,45.32
2019-04-04T06:52:58.941Z,45.19
2019-04-04T06:55:29.512Z,45.02
2019-04-04T06:57:59.392Z,44.67
2019-04-04T07:00:29.340Z,44.68
2019-04-04T07:02:59.433Z,44.22
2019-04-04T07:05:29.187Z,44.07
2019-04-04T07:07:59.218Z,44.39
2019-04-04T07:10:29.151Z,44.17
2019-04-04T07:13:14.573Z,44.02
2019-04-04T07:15:30.911Z,44.02
2019-04-04T07:18:02.127Z,43.30
2019-04-04T07:20:32.317Z,43.34
2019-04-04T07:23:02.190Z,43.10
2019-04-04T07:25:31.990Z,43.07
2019-04-04T07:28:02.009Z,43.06
2019-04-04T07:30:32.273Z,42.99
2019-04-04T07:33:02.052Z,43.01
2019-04-04T07:35:32.025Z,42.52
2019-04-04T07:38:02.078Z,42.48
2019-04-04T07:40:34.070Z,42.17
2019-04-04T07:43:04.096Z,42.52
2019-04-04T07:45:33.927Z,42.40
2019-04-04T07:50:38.399Z,41.70
2019-04-04T07:53:08.388Z,41.96
2019-04-04T07:55:40.121Z,41.72
2019-04-04T07:58:10.463Z,41.40
2019-04-04T08:00:40.557Z,41.70
2019-04-04T08:03:10.324Z,41.58
2019-04-04T08:05:40.468Z,41.34
2019-04-04T08:08:10.626Z,41.45
2019-04-04T08:10:40.890Z,41.11
2019-04-04T08:13:10.927Z,40.91
2019-04-04T08:15:41.003Z,40.78
2019-04-04T08:18:11.154Z,41.06
2019-04-04T08:20:41.107Z,40.75
2019-04-04T08:23:11.009Z,40.46
2019-04-04T08:25:41.241Z,40.61
2019-04-04T08:28:11.454Z,40.19
2019-04-04T08:30:41.441Z,40.25
2019-04-04T08:33:11.571Z,39.74
2019-04-04T08:35:41.409Z,40.00
2019-04-04T08:38:11.342Z,39.59
2019-04-04T08:40:41.807Z,39.81
2019-04-04T08:43:12.074Z,39.54
2019-04-04T08:45:42.089Z,39.12
2019-04-04T08:48:12.212Z,39.23
2019-04-04T08:50:42.383Z,38.80
2019-04-04T08:53:12.421Z,39.28
2019-04-04T08:55:42.613Z,39.33
2019-04-04T08:58:12.629Z,39.30
2019-04-04T09:00:42.886Z,39.22
2019-04-04T09:03:13.058Z,39.29
2019-04-04T09:05:43.741Z,39.01
2019-04-04T09:08:13.777Z,39.27
2019-04-04T09:10:43.932Z,38.91
2019-04-04T09:13:13.919Z,39.23
2019-04-04T09:15:43.972Z,39.24
2019-04-04T09:18:14.102Z,39.21
2019-04-04T09:20:44.199Z,39.19
2019-04-04T09:23:14.086Z,39.13
2019-04-04T09:25:44.792Z,39.11
2019-04-04T09:28:14.813Z,38.97
2019-04-04T09:30:44.701Z,38.80
2019-04-04T09:33:14.721Z,39.03
2019-04-04T09:35:44.577Z,38.93
2019-04-04T09:38:14.364Z,38.85
2019-04-04T09:40:44.567Z,38.82
2019-04-04T09:43:14.345Z,38.95
2019-04-04T09:45:43.893Z,38.63
2019-04-04T09:48:14.211Z,38.38
2019-04-04T09:50:43.923Z,38.20
2019-04-04T09:53:13.706Z,38.21
2019-04-04T09:55:43.809Z,37.95
2019-04-04T09:58:13.602Z,37.71
2019-04-04T10:00:43.761Z,37.78
2019-04-04T10:03:13.594Z,37.50
2019-04-04T10:05:43.326Z,37.63
2019-04-04T10:08:13.217Z,37.75
2019-04-04T10:10:48.103Z,37.86
2019-04-04T10:13:18.515Z,37.64
2019-04-04T10:15:48.307Z,37.26
2019-04-04T10:18:18.422Z,37.08
2019-04-04T10:20:48.614Z,36.83
2019-04-04T10:23:18.448Z,36.48
2019-04-04T10:25:48.454Z,36.60
2019-04-04T10:28:18.488Z,36.04
2019-04-04T10:30:48.409Z,36.15
2019-04-04T10:33:18.630Z,36.37
2019-04-04T10:35:48.474Z,36.42
2019-04-04T10:38:18.448Z,36.41
2019-04-04T10:40:48.809Z,35.95
2019-04-04T10:43:19.356Z,35.81
2019-04-04T10:45:49.586Z,35.54
2019-04-04T10:48:19.512Z,35.33
2019-04-04T10:50:49.605Z,35.35
2019-04-04T10:53:19.971Z,35.42
2019-04-04T10:55:49.654Z,35.19
2019-04-04T10:58:19.622Z,35.05
2019-04-04T11:00:49.710Z,35.13
2019-04-04T11:03:19.296Z,35.06
2019-04-04T11:05:49.007Z,35.03
2019-04-04T11:08:19.534Z,35.12
2019-04-04T11:10:49.453Z,35.00
2019-04-04T11:13:32.564Z,34.97
2019-04-04T11:15:51.511Z,34.85
2019-04-04T11:18:21.603Z,35.01
2019-04-04T11:20:51.842Z,34.82
2019-04-04T11:23:22.013Z,34.82
2019-04-04T11:25:51.933Z,34.84
2019-04-04T11:28:21.979Z,34.80
2019-04-04T11:30:52.043Z,34.88
2019-04-04T11:33:22.028Z,34.74
2019-04-04T11:35:51.930Z,34.71
2019-04-04T11:38:21.852Z,34.68
2019-04-04T11:40:51.650Z,34.64
2019-04-04T11:43:22.242Z,34.65
2019-04-04T11:45:52.114Z,34.53
2019-04-04T11:48:22.085Z,34.54
2019-04-04T11:50:51.953Z,34.47
2019-04-04T11:53:21.728Z,34.31
2019-04-04T11:55:51.758Z,34.41
2019-04-04T11:58:21.670Z,34.33
2019-04-04T12:00:52.685Z,34.31
2019-04-04T12:03:22.839Z,34.40
2019-04-04T12:05:54.754Z,34.15
2019-04-04T12:08:24.887Z,34.27
2019-04-04T12:10:54.854Z,34.37
2019-04-04T12:13:24.996Z,34.36
2019-04-04T12:15:55.162Z,34.26
2019-04-04T12:18:25.093Z,34.16
2019-04-04T12:20:55.174Z,34.16
2019-04-04T12:23:25.132Z,34.11
2019-04-04T12:25:55.159Z,34.06
2019-04-04T12:28:25.320Z,33.98
2019-04-04T12:30:55.520Z,33.89
2019-04-04T12:33:25.507Z,33.51
2019-04-04T12:35:55.639Z,33.89
2019-04-04T12:38:25.547Z,33.86
2019-04-04T12:40:55.492Z,33.70
2019-04-04T12:43:25.682Z,33.79
2019-04-04T12:45:55.941Z,33.86
2019-04-04T12:48:25.648Z,33.90
2019-04-04T12:50:56.138Z,33.83
2019-04-04T12:53:26.440Z,33.87
2019-04-04T12:55:56.427Z,33.74
2019-04-04T12:58:26.722Z,33.76
2019-04-04T13:00:56.991Z,33.74
2019-04-04T13:03:27.394Z,33.78
2019-04-04T13:05:57.676Z,33.80
2019-04-04T13:08:30.392Z,33.75
2019-04-04T13:10:59.780Z,33.77
2019-04-04T13:13:29.546Z,33.86
2019-04-04T13:15:59.578Z,33.79
2019-04-04T13:18:29.943Z,33.71
2019-04-04T13:20:59.876Z,33.81
2019-04-04T13:23:29.933Z,33.86
2019-04-04T13:26:00.037Z,33.82
2019-04-04T13:28:30.008Z,33.78
2019-04-04T13:31:00.187Z,33.84
2019-04-04T13:33:30.226Z,33.84
2019-04-04T13:36:00.168Z,33.80
2019-04-04T13:38:30.014Z,33.82
2019-04-04T13:41:00.088Z,33.78
2019-04-04T13:43:29.974Z,33.76
2019-04-04T13:46:00.280Z,33.79
2019-04-04T13:48:30.480Z,33.80
2019-04-04T13:51:00.445Z,33.76
2019-04-04T13:53:30.410Z,33.79
2019-04-04T13:56:00.582Z,33.97
2019-04-04T13:58:30.367Z,33.86
2019-04-04T14:01:00.717Z,33.79
2019-04-04T14:03:30.738Z,33.71
2019-04-04T14:06:01.910Z,33.38
2019-04-04T14:08:32.303Z,33.59
2019-04-04T14:11:02.161Z,33.71
2019-04-04T14:13:32.186Z,33.75
2019-04-04T14:16:02.691Z,33.70
2019-04-04T14:18:39.617Z,33.60
2019-04-04T14:21:04.838Z,33.46
2019-04-04T14:23:34.921Z,33.71
2019-04-04T14:26:05.024Z,33.94
2019-04-04T14:28:35.408Z,33.90
2019-04-04T14:31:05.725Z,33.91
2019-04-04T14:33:35.880Z,34.05
2019-04-04T14:36:05.856Z,33.97
2019-04-04T14:38:35.832Z,34.13
2019-04-04T14:41:11.357Z,34.12
2019-04-04T14:43:38.085Z,34.20
2019-04-04T14:46:08.074Z,34.25
2019-04-04T14:48:37.982Z,34.31
2019-04-04T14:51:08.012Z,34.21
2019-04-04T14:53:37.623Z,34.42
2019-04-04T14:56:07.340Z,34.42
2019-04-04T14:58:37.087Z,34.36
2019-04-04T15:01:07.271Z,34.38
2019-04-04T15:03:37.114Z,34.38
2019-04-04T15:06:07.245Z,34.42
2019-04-04T15:08:36.838Z,34.46
2019-04-04T15:11:06.854Z,34.55
2019-04-04T15:13:36.981Z,34.47
2019-04-04T15:16:14.403Z,34.45
2019-04-04T15:18:45.383Z,34.53
2019-04-04T15:21:15.677Z,34.55
2019-04-04T15:23:45.405Z,34.60
2019-04-04T15:26:16.019Z,34.65
2019-04-04T15:28:45.841Z,34.68
2019-04-04T15:31:15.611Z,34.69
2019-04-04T15:33:45.440Z,34.78
2019-04-04T15:36:15.175Z,34.83
2019-04-04T15:38:45.048Z,34.89
2019-04-04T15:41:15.073Z,34.88
2019-04-04T15:43:45.094Z,34.94
2019-04-04T15:46:15.315Z,34.92
2019-04-04T15:48:45.399Z,34.89
2019-04-04T15:51:15.085Z,35.09
2019-04-04T15:53:45.037Z,35.16
2019-04-04T15:56:15.227Z,35.16
2019-04-04T15:58:44.904Z,35.15
2019-04-04T16:01:14.827Z,35.24
2019-04-04T16:03:44.430Z,35.32
2019-04-04T16:06:14.287Z,35.38
2019-04-04T16:08:44.154Z,35.47
2019-04-04T16:11:14.172Z,35.52
2019-04-04T16:13:43.789Z,35.61
2019-04-04T16:16:14.083Z,35.62
2019-04-04T16:18:43.896Z,35.71
2019-04-04T16:21:13.608Z,35.69
2019-04-04T16:23:43.768Z,35.72
2019-04-04T16:26:13.878Z,35.78
2019-04-04T16:28:43.960Z,35.91
2019-04-04T16:31:13.994Z,35.83
2019-04-04T16:33:43.659Z,35.96
2019-04-04T16:36:13.496Z,36.05
2019-04-04T16:38:43.622Z,36.01
2019-04-04T16:41:14.610Z,36.06
2019-04-04T16:43:44.713Z,36.16
2019-04-04T16:46:14.672Z,36.30
2019-04-04T16:48:44.689Z,36.41
2019-04-04T16:51:14.743Z,36.49
2019-04-04T16:53:44.586Z,36.59
2019-04-04T16:56:14.349Z,36.70
2019-04-04T16:58:44.514Z,36.80
2019-04-04T17:01:14.291Z,36.82
2019-04-04T17:03:44.317Z,36.92
2019-04-04T17:06:14.361Z,37.06
2019-04-04T17:08:44.008Z,37.20
2019-04-04T17:11:13.574Z,37.24
2019-04-04T17:13:43.869Z,37.36
2019-04-04T17:16:13.608Z,37.43
2019-04-04T17:18:43.462Z,37.57
2019-04-04T17:21:13.415Z,37.74
2019-04-04T17:23:42.970Z,37.80
2019-04-04T17:26:12.779Z,37.86
2019-04-04T17:28:42.719Z,37.92
2019-04-04T17:31:12.537Z,38.01
2019-04-04T17:33:42.784Z,38.09
2019-04-04T17:36:12.459Z,38.08
2019-04-04T17:38:42.589Z,38.21
2019-04-04T17:41:12.396Z,38.23
2019-04-04T17:43:42.105Z,38.34
2019-04-04T17:46:12.467Z,38.42
2019-04-04T17:48:42.846Z,38.53
2019-04-04T17:51:14.563Z,38.61
2019-04-04T17:53:46.939Z,38.75
2019-04-04T17:56:16.988Z,38.82
2019-04-04T17:58:47.301Z,38.90
2019-04-04T18:01:17.270Z,39.01
2019-04-04T18:03:47.094Z,39.12
2019-04-04T18:06:17.109Z,39.25
2019-04-04T18:08:46.976Z,39.34
2019-04-04T18:11:16.888Z,39.45
2019-04-04T18:13:47.212Z,39.68
2019-04-04T18:16:17.277Z,39.79
2019-04-04T18:18:47.577Z,39.94
2019-04-04T18:21:17.672Z,39.90
2019-04-04T18:23:47.907Z,40.03
2019-04-04T18:26:17.662Z,40.23
2019-04-04T18:28:47.864Z,40.38
2019-04-04T18:31:17.573Z,40.57
2019-04-04T18:33:47.294Z,40.55
2019-04-04T18:36:17.310Z,40.68
2019-04-04T18:38:47.565Z,40.72
2019-04-04T18:41:17.302Z,40.83
2019-04-04T18:43:47.702Z,40.88
2019-04-04T18:46:17.573Z,41.01
2019-04-04T18:48:47.610Z,41.04
2019-04-04T18:51:17.618Z,40.99
2019-04-04T18:53:47.257Z,41.11
2019-04-04T18:56:17.207Z,41.16
2019-04-04T18:58:47.169Z,41.25
2019-04-04T19:01:17.050Z,41.32
2019-04-04T19:03:47.038Z,41.41
2019-04-04T19:06:17.311Z,41.39
2019-04-04T19:08:47.035Z,41.41
2019-04-04T19:11:16.829Z,41.50
2019-04-04T19:13:46.871Z,41.57
2019-04-04T19:16:16.462Z,41.58
2019-04-04T19:18:46.177Z,41.61
2019-04-04T19:21:16.617Z,41.66
2019-04-04T19:23:49.530Z,41.79
2019-04-04T19:26:18.148Z,41.80
2019-04-04T19:28:47.915Z,41.89
2019-04-04T19:31:17.719Z,41.93
2019-04-04T19:33:47.481Z,42.05
2019-04-04T19:36:17.413Z,42.08
2019-04-04T19:38:47.121Z,42.21
2019-04-04T19:41:16.936Z,42.40
2019-04-04T19:43:46.546Z,42.47
2019-04-04T19:46:16.468Z,42.52
2019-04-04T19:48:48.296Z,42.71
2019-04-04T19:51:18.055Z,42.91
2019-04-04T19:53:48.113Z,43.04
2019-04-04T19:56:17.883Z,43.18
2019-04-04T19:58:47.723Z,43.28
2019-04-04T20:01:17.639Z,43.25
2019-04-04T20:03:47.599Z,43.38
2019-04-04T20:06:17.698Z,43.53
2019-04-04T20:08:51.049Z,43.66
2019-04-04T20:11:19.718Z,43.86
2019-04-04T20:13:49.919Z,44.26
2019-04-04T20:16:19.658Z,44.28
2019-04-04T20:18:49.265Z,44.37
2019-04-04T20:21:19.539Z,44.53
2019-04-04T20:23:49.071Z,44.51
2019-04-04T20:26:18.835Z,44.76
2019-04-04T20:28:48.861Z,44.74
2019-04-04T20:31:18.466Z,44.87
2019-04-04T20:34:00.601Z,45.02
2019-04-04T20:36:20.113Z,45.05
2019-04-04T20:38:50.166Z,45.21
2019-04-04T20:41:19.986Z,45.30
2019-04-04T20:43:49.871Z,45.46
2019-04-04T20:46:19.639Z,45.53
2019-04-04T20:48:49.738Z,45.72
2019-04-04T20:51:19.868Z,45.65
2019-04-04T20:53:49.782Z,45.74
2019-04-04T20:56:19.607Z,45.80
2019-04-04T20:58:49.682Z,45.70
2019-04-04T21:01:19.543Z,45.95
2019-04-04T21:03:49.229Z,46.27
2019-04-04T21:06:19.232Z,46.37
2019-04-04T21:08:48.909Z,46.52
2019-04-04T21:11:18.537Z,46.50
2019-04-04T21:13:55.921Z,46.44
2019-04-04T21:16:20.003Z,46.69
2019-04-04T21:18:50.054Z,46.70
2019-04-04T21:21:20.159Z,46.64
2019-04-04T21:23:49.924Z,46.80
2019-04-04T21:26:19.623Z,46.80
2019-04-04T21:28:49.539Z,46.78
2019-04-04T21:31:19.255Z,47.04
2019-04-04T21:33:48.980Z,47.17
2019-04-04T21:36:18.974Z,47.38
2019-04-04T21:38:48.716Z,47.39
2019-04-04T21:41:18.438Z,47.30
2019-04-04T21:43:48.361Z,47.29
2019-04-04T21:46:18.212Z,47.23
2019-04-04T21:48:47.961Z,47.21
2019-04-04T21:51:17.863Z,47.31
2019-04-04T21:53:47.873Z,47.61
2019-04-04T21:56:17.570Z,47.58
2019-04-04T21:58:47.614Z,47.46
2019-04-04T22:01:17.636Z,47.44
2019-04-04T22:03:47.308Z,47.54
2019-04-04T22:06:17.393Z,47.61
2019-04-04T22:08:47.476Z,47.49
2019-04-04T22:11:17.153Z,47.52
2019-04-04T22:13:47.148Z,47.43
2019-04-04T22:16:16.775Z,47.41
2019-04-04T22:18:46.388Z,47.45
2019-04-04T22:21:16.656Z,47.56
2019-04-04T22:23:46.323Z,47.48
2019-04-04T22:26:16.035Z,47.53
2019-04-04T22:28:46.009Z,47.60
2019-04-04T22:31:15.726Z,47.50
2019-04-04T22:33:45.647Z,47.50
2019-04-04T22:36:15.731Z,47.92
2019-04-04T22:38:45.676Z,47.62
2019-04-04T22:41:15.247Z,47.72
2019-04-04T22:43:45.169Z,47.62
2019-04-04T22:46:14.835Z,47.54
2019-04-04T22:48:44.672Z,47.51
2019-04-04T22:51:14.320Z,47.65
2019-04-04T22:53:44.138Z,47.61
2019-04-04T22:56:13.753Z,47.42
2019-04-04T22:58:43.640Z,47.38
2019-04-04T23:01:13.526Z,47.44
2019-04-04T23:03:43.297Z,47.22
2019-04-04T23:06:13.268Z,47.51
2019-04-04T23:08:43.029Z,47.39
2019-04-04T23:11:12.931Z,47.39
2019-04-04T23:13:42.809Z,47.42
2019-04-04T23:16:12.715Z,47.52
2019-04-04T23:18:42.554Z,47.45
2019-04-04T23:21:12.682Z,47.41
2019-04-04T23:23:42.384Z,47.43
2019-04-04T23:26:12.601Z,47.45
2019-04-04T23:28:42.725Z,47.31
2019-04-04T23:31:12.388Z,47.10
2019-04-04T23:33:42.163Z,47.10
2019-04-04T23:36:12.371Z,47.16
2019-04-04T23:38:42.122Z,47.18
2019-04-04T23:41:12.055Z,47.36
2019-04-04T23:43:41.725Z,47.28
2019-04-04T23:46:11.477Z,47.21
2019-04-04T23:48:41.420Z,47.33
2019-04-04T23:51:11.357Z,47.31
2019-04-04T23:53:41.065Z,47.50
2019-04-04T23:56:10.842Z,47.67
2019-04-04T23:58:40.730Z,47.80
